sensor_id;sensor_type;location;lat;lon;timestamp;pressure;altitude;pressure_sealevel;temperature;humidity
36600;BME280;35385;55.668;37.508;2023-07-08T00:00:07;99212.66;;;19.55;100.00
36600;BME280;35385;55.668;37.508;2023-07-08T00:01:10;99212.19;;;19.51;100.00
36600;BME280;35385;55.668;37.508;2023-07-08T00:02:12;99214.50;;;19.54;100.00
36600;BME280;35385;55.668;37.508;2023-07-08T00:03:14;99209.28;;;19.53;100.00
36600;BME280;35385;55.668;37.508;2023-07-08T00:04:14;99205.53;;;19.54;100.00
36600;BME280;35385;55.668;37.508;2023-07-08T00:05:15;99210.13;;;19.53;100.00
36600;BME280;35385;55.668;37.508;2023-07-08T00:06:20;99211.34;;;19.51;100.00
36600;BME280;35385;55.668;37.508;2023-07-08T00:07:20;99207.53;;;19.45;100.00
36600;BME280;35385;55.668;37.508;2023-07-08T00:08:21;99207.72;;;19.43;100.00
36600;BME280;35385;55.668;37.508;2023-07-08T00:09:22;99206.69;;;19.45;100.00
36600;BME280;35385;55.668;37.508;2023-07-08T00:10:25;99211.91;;;19.46;100.00
36600;BME280;35385;55.668;37.508;2023-07-08T00:11:26;99206.31;;;19.48;100.00
36600;BME280;35385;55.668;37.508;2023-07-08T00:12:28;99214.44;;;19.48;100.00
36600;BME280;35385;55.668;37.508;2023-07-08T00:13:28;99210.06;;;19.47;100.00
36600;BME280;35385;55.668;37.508;2023-07-08T00:14:29;99206.31;;;19.48;100.00
36600;BME280;35385;55.668;37.508;2023-07-08T00:15:30;99210.88;;;19.47;100.00
36600;BME280;35385;55.668;37.508;2023-07-08T00:16:32;99218.38;;;19.45;100.00
36600;BME280;35385;55.668;37.508;2023-07-08T00:17:32;99220.44;;;19.43;100.00
36600;BME280;35385;55.668;37.508;2023-07-08T00:18:33;99221.25;;;19.43;100.00
36600;BME280;35385;55.668;37.508;2023-07-08T00:19:33;99220.44;;;19.43;100.00
36600;BME280;35385;55.668;37.508;2023-07-08T00:20:51;99225.00;;;19.42;100.00
36600;BME280;35385;55.668;37.508;2023-07-08T00:21:52;99227.53;;;19.44;100.00
36600;BME280;35385;55.668;37.508;2023-07-08T00:22:52;99216.03;;;19.42;100.00
36600;BME280;35385;55.668;37.508;2023-07-08T00:23:53;99218.75;;;19.42;100.00
36600;BME280;35385;55.668;37.508;2023-07-08T00:24:53;99218.38;;;19.45;100.00
36600;BME280;35385;55.668;37.508;2023-07-08T00:25:53;99224.44;;;19.47;100.00
36600;BME280;35385;55.668;37.508;2023-07-08T00:26:54;99217.34;;;19.46;100.00
36600;BME280;35385;55.668;37.508;2023-07-08T00:27:54;99224.22;;;19.49;100.00
36600;BME280;35385;55.668;37.508;2023-07-08T00:28:55;99225.91;;;19.50;100.00
36600;BME280;35385;55.668;37.508;2023-07-08T00:29:56;99228.06;;;19.54;100.00
36600;BME280;35385;55.668;37.508;2023-07-08T00:30:56;99221.59;;;19.55;100.00
36600;BME280;35385;55.668;37.508;2023-07-08T00:31:57;99221.41;;;19.57;100.00
36600;BME280;35385;55.668;37.508;2023-07-08T00:32:58;99223.28;;;19.56;100.00
36600;BME280;35385;55.668;37.508;2023-07-08T00:33:59;99221.81;;;19.54;100.00
36600;BME280;35385;55.668;37.508;2023-07-08T00:34:59;99226.38;;;19.53;100.00
36600;BME280;35385;55.668;37.508;2023-07-08T00:35:59;99230.13;;;19.52;100.00
36600;BME280;35385;55.668;37.508;2023-07-08T00:37:00;99231.34;;;19.50;100.00
36600;BME280;35385;55.668;37.508;2023-07-08T00:38:00;99224.63;;;19.46;100.00
36600;BME280;35385;55.668;37.508;2023-07-08T00:39:01;99226.31;;;19.47;100.00
36600;BME280;35385;55.668;37.508;2023-07-08T00:40:13;99232.75;;;19.46;100.00
36600;BME280;35385;55.668;37.508;2023-07-08T00:41:16;99223.97;;;19.43;100.00
36600;BME280;35385;55.668;37.508;2023-07-08T00:42:19;99230.41;;;19.42;100.00
36600;BME280;35385;55.668;37.508;2023-07-08T00:43:21;99229.38;;;19.43;100.00
36600;BME280;35385;55.668;37.508;2023-07-08T00:44:23;99239.19;;;19.45;100.00
36600;BME280;35385;55.668;37.508;2023-07-08T00:47:18;99225.38;;;19.39;100.00
36600;BME280;35385;55.668;37.508;2023-07-08T00:47:53;99227.25;;;19.39;100.00
36600;BME280;35385;55.668;37.508;2023-07-08T00:50:08;99229.13;;;19.38;100.00
36600;BME280;35385;55.668;37.508;2023-07-08T00:51:11;99223.72;;;19.38;100.00
36600;BME280;35385;55.668;37.508;2023-07-08T00:52:19;99226.41;;;19.38;100.00
36600;BME280;35385;55.668;37.508;2023-07-08T00:54:26;99228.84;;;19.33;100.00
36600;BME280;35385;55.668;37.508;2023-07-08T00:55:27;99230.53;;;19.34;100.00
36600;BME280;35385;55.668;37.508;2023-07-08T00:56:31;99229.91;;;19.32;100.00
36600;BME280;35385;55.668;37.508;2023-07-08T00:57:35;99235.53;;;19.31;100.00
36600;BME280;35385;55.668;37.508;2023-07-08T00:58:39;99238.22;;;19.31;100.00
36600;BME280;35385;55.668;37.508;2023-07-08T00:59:42;99240.09;;;19.30;100.00
36600;BME280;35385;55.668;37.508;2023-07-08T01:00:44;99238.03;;;19.32;100.00
36600;BME280;35385;55.668;37.508;2023-07-08T01:01:44;99229.91;;;19.32;100.00
36600;BME280;35385;55.668;37.508;2023-07-08T01:02:53;99232.41;;;19.34;100.00
36600;BME280;35385;55.668;37.508;2023-07-08T01:03:56;99233.25;;;19.34;100.00
36600;BME280;35385;55.668;37.508;2023-07-08T01:05:05;99236.41;;;19.38;100.00
36600;BME280;35385;55.668;37.508;2023-07-08T01:06:06;99240.97;;;19.37;100.00
36600;BME280;35385;55.668;37.508;2023-07-08T01:07:07;99231.19;;;19.36;100.00
36600;BME280;35385;55.668;37.508;2023-07-08T01:08:09;99242.84;;;19.37;100.00
36600;BME280;35385;55.668;37.508;2023-07-08T01:09:10;99236.59;;;19.36;100.00
36600;BME280;35385;55.668;37.508;2023-07-08T01:10:14;99234.53;;;19.38;100.00
36600;BME280;35385;55.668;37.508;2023-07-08T01:11:16;99237.44;;;19.37;100.00
36600;BME280;35385;55.668;37.508;2023-07-08T01:12:19;99230.53;;;19.34;100.00
36600;BME280;35385;55.668;37.508;2023-07-08T01:13:20;99232.84;;;19.37;100.00
36600;BME280;35385;55.668;37.508;2023-07-08T01:14:21;99235.19;;;19.40;100.00
36600;BME280;35385;55.668;37.508;2023-07-08T01:15:23;99242.28;;;19.41;100.00
36600;BME280;35385;55.668;37.508;2023-07-08T01:16:26;99243.31;;;19.40;100.00
36600;BME280;35385;55.668;37.508;2023-07-08T01:17:27;99243.97;;;19.42;100.00
36600;BME280;35385;55.668;37.508;2023-07-08T01:18:32;99239.94;;;19.38;100.00
36600;BME280;35385;55.668;37.508;2023-07-08T01:19:34;99240.16;;;19.37;100.00
36600;BME280;35385;55.668;37.508;2023-07-08T01:20:34;99246.16;;;19.32;100.00
36600;BME280;35385;55.668;37.508;2023-07-08T01:21:38;99236.34;;;19.31;100.00
36600;BME280;35385;55.668;37.508;2023-07-08T01:22:39;99237.81;;;19.34;100.00
36600;BME280;35385;55.668;37.508;2023-07-08T01:23:40;99238.66;;;19.34;100.00
36600;BME280;35385;55.668;37.508;2023-07-08T01:24:42;99247.03;;;19.39;100.00
36600;BME280;35385;55.668;37.508;2023-07-08T01:25:44;99245.00;;;19.41;100.00
36600;BME280;35385;55.668;37.508;2023-07-08T01:26:45;99246.66;;;19.42;100.00
36600;BME280;35385;55.668;37.508;2023-07-08T01:27:47;99246.22;;;19.39;100.00
36600;BME280;35385;55.668;37.508;2023-07-08T01:28:48;99249.09;;;19.37;100.00
36600;BME280;35385;55.668;37.508;2023-07-08T01:29:49;99243.69;;;19.37;100.00
36600;BME280;35385;55.668;37.508;2023-07-08T01:30:49;99247.88;;;19.40;100.00
36600;BME280;35385;55.668;37.508;2023-07-08T01:31:50;99243.13;;;19.42;100.00
36600;BME280;35385;55.668;37.508;2023-07-08T01:32:52;99246.84;;;19.41;100.00
36600;BME280;35385;55.668;37.508;2023-07-08T01:33:55;99246.03;;;19.40;100.00
36600;BME280;35385;55.668;37.508;2023-07-08T01:35:00;99247.88;;;19.40;100.00
36600;BME280;35385;55.668;37.508;2023-07-08T01:36:01;99245.63;;;19.43;100.00
36600;BME280;35385;55.668;37.508;2023-07-08T01:37:02;99248.34;;;19.43;100.00
36600;BME280;35385;55.668;37.508;2023-07-08T01:38:03;99247.69;;;19.41;100.00
36600;BME280;35385;55.668;37.508;2023-07-08T01:39:05;99242.84;;;19.37;100.00
36600;BME280;35385;55.668;37.508;2023-07-08T01:41:21;99249.75;;;19.39;100.00
36600;BME280;35385;55.668;37.508;2023-07-08T01:42:21;99252.09;;;19.42;100.00
36600;BME280;35385;55.668;37.508;2023-07-08T01:43:22;99250.88;;;19.45;100.00
36600;BME280;35385;55.668;37.508;2023-07-08T01:44:27;99248.81;;;19.47;100.00
36600;BME280;35385;55.668;37.508;2023-07-08T01:45:37;99251.28;;;19.49;100.00
36600;BME280;35385;55.668;37.508;2023-07-08T01:46:38;99253.38;;;19.47;100.00
36600;BME280;35385;55.668;37.508;2023-07-08T01:47:39;99250.47;;;19.48;100.00
36600;BME280;35385;55.668;37.508;2023-07-08T01:48:40;99243.84;;;19.51;100.00
36600;BME280;35385;55.668;37.508;2023-07-08T01:49:42;99248.03;;;19.53;100.00
36600;BME280;35385;55.668;37.508;2023-07-08T01:50:59;99246.81;;;19.56;100.00
36600;BME280;35385;55.668;37.508;2023-07-08T01:52:00;99250.19;;;19.58;100.00
36600;BME280;35385;55.668;37.508;2023-07-08T01:53:02;99238.13;;;19.60;100.00
36600;BME280;35385;55.668;37.508;2023-07-08T01:54:03;99235.22;;;19.62;100.00
36600;BME280;35385;55.668;37.508;2023-07-08T01:55:04;99231.44;;;19.63;100.00
36600;BME280;35385;55.668;37.508;2023-07-08T01:56:04;99238.75;;;19.62;100.00
36600;BME280;35385;55.668;37.508;2023-07-08T01:57:05;99235.59;;;19.59;100.00
36600;BME280;35385;55.668;37.508;2023-07-08T01:58:05;99233.94;;;19.58;100.00
36600;BME280;35385;55.668;37.508;2023-07-08T01:59:06;99242.25;;;19.56;100.00
36600;BME280;35385;55.668;37.508;2023-07-08T02:00:06;99241.03;;;19.59;100.00
36600;BME280;35385;55.668;37.508;2023-07-08T02:01:07;99238.13;;;19.60;100.00
36600;BME280;35385;55.668;37.508;2023-07-08T02:02:07;99245.66;;;19.65;100.00
36600;BME280;35385;55.668;37.508;2023-07-08T02:03:07;99243.97;;;19.64;100.00
36600;BME280;35385;55.668;37.508;2023-07-08T02:04:10;99240.00;;;19.60;100.00
36600;BME280;35385;55.668;37.508;2023-07-08T02:05:10;99241.22;;;19.57;100.00
36600;BME280;35385;55.668;37.508;2023-07-08T02:06:10;99236.81;;;19.56;100.00
36600;BME280;35385;55.668;37.508;2023-07-08T02:07:11;99234.78;;;19.58;100.00
36600;BME280;35385;55.668;37.508;2023-07-08T02:08:11;99232.06;;;19.58;100.00
36600;BME280;35385;55.668;37.508;2023-07-08T02:09:11;99237.28;;;19.60;100.00
36600;BME280;35385;55.668;37.508;2023-07-08T02:10:12;99234.69;;;19.52;100.00
36600;BME280;35385;55.668;37.508;2023-07-08T02:11:12;99235.34;;;19.54;100.00
36600;BME280;35385;55.668;37.508;2023-07-08T02:12:12;99242.25;;;19.56;100.00
36600;BME280;35385;55.668;37.508;2023-07-08T02:13:13;99241.03;;;19.59;100.00
36600;BME280;35385;55.668;37.508;2023-07-08T02:14:13;99238.13;;;19.60;100.00
36600;BME280;35385;55.668;37.508;2023-07-08T02:15:14;99235.22;;;19.62;100.00
36600;BME280;35385;55.668;37.508;2023-07-08T02:16:14;99236.44;;;19.59;100.00
36600;BME280;35385;55.668;37.508;2023-07-08T02:17:14;99236.88;;;19.63;100.00
36600;BME280;35385;55.668;37.508;2023-07-08T02:18:36;99232.75;;;19.67;100.00
36600;BME280;35385;55.668;37.508;2023-07-08T02:19:37;99232.38;;;19.70;100.00
36600;BME280;35385;55.668;37.508;2023-07-08T02:20:37;99231.13;;;19.72;100.00
36600;BME280;35385;55.668;37.508;2023-07-08T02:21:38;99229.91;;;19.75;100.00
36600;BME280;35385;55.668;37.508;2023-07-08T02:22:39;99233.25;;;19.77;100.00
36600;BME280;35385;55.668;37.508;2023-07-08T02:23:39;99222.22;;;19.78;100.00
36600;BME280;35385;55.668;37.508;2023-07-08T02:24:40;99222.00;;;19.80;100.00
36600;BME280;35385;55.668;37.508;2023-07-08T02:25:40;99224.34;;;19.83;100.00
36600;BME280;35385;55.668;37.508;2023-07-08T02:26:40;99231.59;;;19.76;100.00
36600;BME280;35385;55.668;37.508;2023-07-08T02:27:41;99224.69;;;19.73;100.00
36600;BME280;35385;55.668;37.508;2023-07-08T02:28:42;99224.03;;;19.71;100.00
36600;BME280;35385;55.668;37.508;2023-07-08T02:29:42;99218.25;;;19.74;100.00
36600;BME280;35385;55.668;37.508;2023-07-08T02:30:42;99226.56;;;19.73;100.00
36600;BME280;35385;55.668;37.508;2023-07-08T02:31:43;99225.72;;;19.72;100.00
36600;BME280;35385;55.668;37.508;2023-07-08T02:32:43;99221.13;;;19.73;100.00
36600;BME280;35385;55.668;37.508;2023-07-08T02:33:56;99224.91;;;19.78;100.00
36600;BME280;35385;55.668;37.508;2023-07-08T02:34:56;99223.31;;;19.84;100.00
36600;BME280;35385;55.668;37.508;2023-07-08T02:35:57;99226.66;;;19.86;100.00
36600;BME280;35385;55.668;37.508;2023-07-08T02:36:57;99225.63;;;19.87;100.00
36600;BME280;35385;55.668;37.508;2023-07-08T02:37:58;99226.66;;;19.86;100.00
36600;BME280;35385;55.668;37.508;2023-07-08T02:38:58;99228.34;;;19.87;100.00
36600;BME280;35385;55.668;37.508;2023-07-08T02:39:59;99230.66;;;19.90;100.00
36600;BME280;35385;55.668;37.508;2023-07-08T02:41:00;99232.53;;;19.90;100.00
36600;BME280;35385;55.668;37.508;2023-07-08T02:42:00;99236.59;;;19.79;100.00
36600;BME280;35385;55.668;37.508;2023-07-08T02:43:01;99235.38;;;19.82;100.00
36600;BME280;35385;55.668;37.508;2023-07-08T02:44:01;99239.56;;;19.84;100.00
36600;BME280;35385;55.668;37.508;2023-07-08T02:45:02;99244.59;;;19.87;100.00
36600;BME280;35385;55.668;37.508;2023-07-08T02:46:02;99255.66;;;19.92;100.00
36600;BME280;35385;55.668;37.508;2023-07-08T02:47:03;99250.06;;;19.94;100.00
36600;BME280;35385;55.668;37.508;2023-07-08T02:48:03;99244.41;;;19.89;100.00
36600;BME280;35385;55.668;37.508;2023-07-08T02:49:04;99254.59;;;19.87;100.00
36600;BME280;35385;55.668;37.508;2023-07-08T02:50:04;99247.97;;;19.89;100.00
36600;BME280;35385;55.668;37.508;2023-07-08T02:51:05;99242.34;;;19.91;100.00
36600;BME280;35385;55.668;37.508;2023-07-08T02:52:06;99247.53;;;19.92;100.00
36600;BME280;35385;55.668;37.508;2023-07-08T02:53:06;99242.53;;;19.89;100.00
36600;BME280;35385;55.668;37.508;2023-07-08T02:54:06;99237.50;;;19.86;100.00
36600;BME280;35385;55.668;37.508;2023-07-08T02:55:07;99235.44;;;19.88;100.00
36600;BME280;35385;55.668;37.508;2023-07-08T02:56:07;99234.41;;;19.89;100.00
36600;BME280;35385;55.668;37.508;2023-07-08T02:57:08;99229.00;;;19.89;100.00
36600;BME280;35385;55.668;37.508;2023-07-08T02:58:08;99224.19;;;19.91;100.00
36600;BME280;35385;55.668;37.508;2023-07-08T02:59:09;99225.03;;;19.92;100.00
36600;BME280;35385;55.668;37.508;2023-07-08T03:00:10;99221.09;;;19.94;100.00
36600;BME280;35385;55.668;37.508;2023-07-08T03:01:10;99216.94;;;19.98;100.00
36600;BME280;35385;55.668;37.508;2023-07-08T03:02:11;99219.09;;;20.03;100.00
36600;BME280;35385;55.668;37.508;2023-07-08T03:03:11;99214.72;;;20.08;100.00
36600;BME280;35385;55.668;37.508;2023-07-08T03:04:11;99204.31;;;20.12;100.00
36600;BME280;35385;55.668;37.508;2023-07-08T03:05:13;99205.16;;;20.12;100.00
36600;BME280;35385;55.668;37.508;2023-07-08T03:06:13;99194.63;;;19.96;100.00
36600;BME280;35385;55.668;37.508;2023-07-08T03:07:13;99201.28;;;19.94;100.00
36600;BME280;35385;55.668;37.508;2023-07-08T03:08:14;99202.13;;;19.94;100.00
36600;BME280;35385;55.668;37.508;2023-07-08T03:09:14;99202.56;;;19.98;100.00
36600;BME280;35385;55.668;37.508;2023-07-08T03:10:14;99213.47;;;20.04;100.00
36600;BME280;35385;55.668;37.508;2023-07-08T03:11:15;99213.03;;;20.07;100.00
36600;BME280;35385;55.668;37.508;2023-07-08T03:12:15;99218.97;;;20.18;100.00
36600;BME280;35385;55.668;37.508;2023-07-08T03:13:16;99207.50;;;20.22;100.00
36600;BME280;35385;55.668;37.508;2023-07-08T03:14:16;99216.28;;;20.24;100.00
36600;BME280;35385;55.668;37.508;2023-07-08T03:15:16;99219.44;;;20.28;100.00
36600;BME280;35385;55.668;37.508;2023-07-08T03:16:17;99211.94;;;20.30;100.00
36600;BME280;35385;55.668;37.508;2023-07-08T03:17:17;99215.56;;;20.37;100.00
36600;BME280;35385;55.668;37.508;2023-07-08T03:18:19;99212.91;;;20.43;100.00
36600;BME280;35385;55.668;37.508;2023-07-08T03:19:21;99211.16;;;20.36;100.00
36600;BME280;35385;55.668;37.508;2023-07-08T03:20:22;99214.88;;;20.35;100.00
36600;BME280;35385;55.668;37.508;2023-07-08T03:21:22;99214.31;;;20.39;100.00
36600;BME280;35385;55.668;37.508;2023-07-08T03:22:23;99222.00;;;20.36;100.00
36600;BME280;35385;55.668;37.508;2023-07-08T03:23:23;99216.63;;;20.42;100.00
36600;BME280;35385;55.668;37.508;2023-07-08T03:24:24;99213.72;;;20.44;100.00
36600;BME280;35385;55.668;37.508;2023-07-08T03:25:24;99226.47;;;20.43;100.00
36600;BME280;35385;55.668;37.508;2023-07-08T03:26:25;99232.91;;;20.42;100.00
36600;BME280;35385;55.668;37.508;2023-07-08T03:27:26;99223.75;;;20.43;100.00
36600;BME280;35385;55.668;37.508;2023-07-08T03:28:26;99229.16;;;20.43;100.00
36600;BME280;35385;55.668;37.508;2023-07-08T03:29:27;99227.69;;;20.41;100.00
36600;BME280;35385;55.668;37.508;2023-07-08T03:30:27;99229.75;;;20.39;100.00
36600;BME280;35385;55.668;37.508;2023-07-08T03:31:28;99227.03;;;20.39;100.00
36600;BME280;35385;55.668;37.508;2023-07-08T03:32:28;99230.78;;;20.38;100.00
36600;BME280;35385;55.668;37.508;2023-07-08T03:33:29;99234.34;;;20.38;100.00
36600;BME280;35385;55.668;37.508;2023-07-08T03:34:29;99227.25;;;20.37;100.00
36600;BME280;35385;55.668;37.508;2023-07-08T03:35:29;99219.44;;;20.28;100.00
36600;BME280;35385;55.668;37.508;2023-07-08T03:36:30;99217.72;;;20.20;100.00
36600;BME280;35385;55.668;37.508;2023-07-08T03:37:30;99214.34;;;20.11;100.00
36600;BME280;35385;55.668;37.508;2023-07-08T03:38:31;99216.00;;;20.12;100.00
36600;BME280;35385;55.668;37.508;2023-07-08T03:39:31;99212.25;;;20.13;100.00
36600;BME280;35385;55.668;37.508;2023-07-08T03:40:32;99212.06;;;20.15;100.00
36600;BME280;35385;55.668;37.508;2023-07-08T03:41:32;99220.88;;;20.24;100.00
36600;BME280;35385;55.668;37.508;2023-07-08T03:42:33;99214.88;;;20.28;100.00
36600;BME280;35385;55.668;37.508;2023-07-08T03:43:33;99220.69;;;20.25;100.00
36600;BME280;35385;55.668;37.508;2023-07-08T03:44:33;99218.81;;;20.26;100.00
36600;BME280;35385;55.668;37.508;2023-07-08T03:45:34;99213.63;;;20.31;100.00
36600;BME280;35385;55.668;37.508;2023-07-08T03:46:34;99213.00;;;20.35;100.00
36600;BME280;35385;55.668;37.508;2023-07-08T03:47:35;99211.81;;;20.38;100.00
36600;BME280;35385;55.668;37.508;2023-07-08T03:48:35;99212.69;;;20.45;100.00
36600;BME280;35385;55.668;37.508;2023-07-08T03:49:36;99214.63;;;20.58;100.00
36600;BME280;35385;55.668;37.508;2023-07-08T03:50:36;99214.88;;;20.69;100.00
36600;BME280;35385;55.668;37.508;2023-07-08T03:51:37;99205.53;;;20.78;100.00
36600;BME280;35385;55.668;37.508;2023-07-08T03:52:38;99208.88;;;20.74;100.00
36600;BME280;35385;55.668;37.508;2023-07-08T03:53:38;99208.03;;;20.73;100.00
36600;BME280;35385;55.668;37.508;2023-07-08T03:54:39;99208.88;;;20.74;100.00
36600;BME280;35385;55.668;37.508;2023-07-08T03:55:39;99203.41;;;20.67;100.00
36600;BME280;35385;55.668;37.508;2023-07-08T03:56:39;99205.06;;;20.68;100.00
36600;BME280;35385;55.668;37.508;2023-07-08T03:57:40;99199.44;;;20.70;100.00
36600;BME280;35385;55.668;37.508;2023-07-08T03:58:40;99201.13;;;20.71;100.00
36600;BME280;35385;55.668;37.508;2023-07-08T03:59:42;99199.66;;;20.68;100.00
36600;BME280;35385;55.668;37.508;2023-07-08T04:00:42;99201.97;;;20.71;100.00
36600;BME280;35385;55.668;37.508;2023-07-08T04:01:42;99203.88;;;20.77;100.00
36600;BME280;35385;55.668;37.508;2023-07-08T04:02:43;99200.97;;;20.86;100.00
36600;BME280;35385;55.668;37.508;2023-07-08T04:03:44;99199.94;;;20.93;100.00
36600;BME280;35385;55.668;37.508;2023-07-08T04:04:45;99203.72;;;20.99;100.00
36600;BME280;35385;55.668;37.508;2023-07-08T04:05:46;99201.84;;;20.99;100.00
36600;BME280;35385;55.668;37.508;2023-07-08T04:06:47;99207.91;;;21.01;100.00
36600;BME280;35385;55.668;37.508;2023-07-08T04:07:47;99202.69;;;21.06;100.00
36600;BME280;35385;55.668;37.508;2023-07-08T04:08:48;99208.16;;;21.13;100.00
36600;BME280;35385;55.668;37.508;2023-07-08T04:09:48;99214.03;;;21.23;100.00
36600;BME280;35385;55.668;37.508;2023-07-08T04:10:50;99214.28;;;21.35;100.00
36600;BME280;35385;55.668;37.508;2023-07-08T04:11:50;99213.25;;;21.42;100.00
36600;BME280;35385;55.668;37.508;2023-07-08T04:12:51;99209.47;;;21.50;100.00
36600;BME280;35385;55.668;37.508;2023-07-08T04:13:51;99208.88;;;21.48;100.00
36600;BME280;35385;55.668;37.508;2023-07-08T04:14:52;99217.03;;;21.48;100.00
36600;BME280;35385;55.668;37.508;2023-07-08T04:15:54;99219.53;;;21.43;100.00
36600;BME280;35385;55.668;37.508;2023-07-08T04:16:56;99219.09;;;21.39;100.00
36600;BME280;35385;55.668;37.508;2023-07-08T04:17:57;99220.34;;;21.43;100.00
36600;BME280;35385;55.668;37.508;2023-07-08T04:18:58;99218.28;;;21.45;100.00
36600;BME280;35385;55.668;37.508;2023-07-08T04:19:58;99221.63;;;21.47;100.00
36600;BME280;35385;55.668;37.508;2023-07-08T04:21:06;99216.19;;;21.47;100.00
36600;BME280;35385;55.668;37.508;2023-07-08T04:22:07;99214.09;;;21.49;100.00
36600;BME280;35385;55.668;37.508;2023-07-08T04:23:08;99215.34;;;21.53;100.00
36600;BME280;35385;55.668;37.508;2023-07-08T04:24:09;99217.66;;;21.57;100.00
36600;BME280;35385;55.668;37.508;2023-07-08T04:25:10;99222.88;;;21.45;100.00
36600;BME280;35385;55.668;37.508;2023-07-08T04:26:11;99219.94;;;21.33;100.00
36600;BME280;35385;55.668;37.508;2023-07-08T04:27:12;99217.78;;;21.22;100.00
36600;BME280;35385;55.668;37.508;2023-07-08T04:28:15;99220.94;;;21.19;100.00
36600;BME280;35385;55.668;37.508;2023-07-08T04:29:16;99219.25;;;21.18;100.00
36600;BME280;35385;55.668;37.508;2023-07-08T04:30:22;99218.16;;;21.12;100.00
36600;BME280;35385;55.668;37.508;2023-07-08T04:31:22;99228.78;;;21.07;100.00
36600;BME280;35385;55.668;37.508;2023-07-08T04:32:23;99226.13;;;21.14;100.00
36600;BME280;35385;55.668;37.508;2023-07-08T04:33:26;99229.09;;;21.19;100.00
36600;BME280;35385;55.668;37.508;2023-07-08T04:34:27;99226.16;;;21.27;100.00
36600;BME280;35385;55.668;37.508;2023-07-08T04:35:28;99236.19;;;21.27;100.00
36600;BME280;35385;55.668;37.508;2023-07-08T04:36:29;99230.72;;;21.13;100.00
36600;BME280;35385;55.668;37.508;2023-07-08T04:37:29;99229.03;;;21.06;100.00
36600;BME280;35385;55.668;37.508;2023-07-08T04:38:30;99241.97;;;21.04;100.00
36600;BME280;35385;55.668;37.508;2023-07-08T04:39:32;99233.19;;;21.02;100.00
36600;BME280;35385;55.668;37.508;2023-07-08T04:40:32;99236.53;;;21.04;100.00
36600;BME280;35385;55.668;37.508;2023-07-08T04:41:33;99231.91;;;20.98;100.00
36600;BME280;35385;55.668;37.508;2023-07-08T04:42:33;99238.56;;;20.89;100.00
36600;BME280;35385;55.668;37.508;2023-07-08T04:43:33;99234.34;;;20.79;100.00
36600;BME280;35385;55.668;37.508;2023-07-08T04:44:34;99232.25;;;20.75;100.00
36600;BME280;35385;55.668;37.508;2023-07-08T04:45:34;99231.63;;;20.73;100.00
36600;BME280;35385;55.668;37.508;2023-07-08T04:46:35;99238.06;;;20.72;100.00
36600;BME280;35385;55.668;37.508;2023-07-08T04:47:37;99230.78;;;20.72;100.00
36600;BME280;35385;55.668;37.508;2023-07-08T04:48:37;99225.78;;;20.76;100.00
36600;BME280;35385;55.668;37.508;2023-07-08T04:49:38;99223.03;;;20.69;100.00
36600;BME280;35385;55.668;37.508;2023-07-08T04:50:44;99220.91;;;20.58;100.00
36600;BME280;35385;55.668;37.508;2023-07-08T04:51:45;99222.53;;;20.53;100.00
36600;BME280;35385;55.668;37.508;2023-07-08T04:52:45;99221.75;;;20.31;100.00
36600;BME280;35385;55.668;37.508;2023-07-08T04:53:45;99219.88;;;20.31;100.00
36600;BME280;35385;55.668;37.508;2023-07-08T04:54:46;99217.59;;;20.35;100.00
36600;BME280;35385;55.668;37.508;2023-07-08T04:55:50;99210.13;;;20.37;100.00
36600;BME280;35385;55.668;37.508;2023-07-08T04:56:51;99206.00;;;20.41;100.00
36600;BME280;35385;55.668;37.508;2023-07-08T04:57:53;99207.88;;;20.40;100.00
36600;BME280;35385;55.668;37.508;2023-07-08T04:58:53;99213.28;;;20.40;100.00
36600;BME280;35385;55.668;37.508;2023-07-08T04:59:53;99221.63;;;20.39;100.00
36600;BME280;35385;55.668;37.508;2023-07-08T05:00:54;99218.28;;;20.37;100.00
36600;BME280;35385;55.668;37.508;2023-07-08T05:01:54;99223.09;;;20.41;100.00
36600;BME280;35385;55.668;37.508;2023-07-08T05:02:54;99226.69;;;20.49;100.00
36600;BME280;35385;55.668;37.508;2023-07-08T05:03:55;99233.56;;;20.51;100.00
36600;BME280;35385;55.668;37.508;2023-07-08T05:04:55;99236.53;;;20.56;100.00
36600;BME280;35385;55.668;37.508;2023-07-08T05:05:55;99249.06;;;20.57;100.00
36600;BME280;35385;55.668;37.508;2023-07-08T05:06:56;99251.13;;;20.55;100.00
36600;BME280;35385;55.668;37.508;2023-07-08T05:07:56;99246.09;;;20.52;100.00
36600;BME280;35385;55.668;37.508;2023-07-08T05:08:57;99249.84;;;20.51;100.00
36600;BME280;35385;55.668;37.508;2023-07-08T05:09:58;99246.94;;;20.53;100.00
36600;BME280;35385;55.668;37.508;2023-07-08T05:10:58;99247.34;;;20.50;100.00
36600;BME280;35385;55.668;37.508;2023-07-08T05:11:59;99256.31;;;20.50;100.00
36600;BME280;35385;55.668;37.508;2023-07-08T05:13:00;99258.41;;;20.48;100.00
36600;BME280;35385;55.668;37.508;2023-07-08T05:14:00;99257.56;;;20.48;100.00
36600;BME280;35385;55.668;37.508;2023-07-08T05:15:01;99256.38;;;20.29;100.00
36600;BME280;35385;55.668;37.508;2023-07-08T05:16:01;99256.88;;;20.11;100.00
36600;BME280;35385;55.668;37.508;2023-07-08T05:17:02;99257.59;;;19.98;100.00
36600;BME280;35385;55.668;37.508;2023-07-08T05:18:02;99249.22;;;19.93;100.00
36600;BME280;35385;55.668;37.508;2023-07-08T05:19:03;99254.16;;;19.83;100.00
36600;BME280;35385;55.668;37.508;2023-07-08T05:20:04;99255.56;;;19.79;100.00
36600;BME280;35385;55.668;37.508;2023-07-08T05:21:04;99253.03;;;19.77;100.00